createdAt,value
2018-12-15T00:00:09.802Z,100812.63
2018-12-15T00:02:37.335Z,100813.09
2018-12-15T00:05:06.150Z,100815.72
2018-12-15T00:07:34.291Z,100809.23
2018-12-15T00:10:01.851Z,100805.70
2018-12-15T00:12:29.798Z,100807.48
2018-12-15T00:14:57.402Z,100814.88
2018-12-15T00:17:24.994Z,100812.25
2018-12-15T00:19:52.969Z,100815.75
2018-12-15T00:22:20.510Z,100819.22
2018-12-15T00:24:48.078Z,100823.66
2018-12-15T00:27:15.986Z,100822.75
2018-12-15T00:29:43.510Z,100819.69
2018-12-15T00:32:11.100Z,100810.03
2018-12-15T00:34:38.663Z,100822.28
2018-12-15T00:37:06.218Z,100821.41
2018-12-15T00:39:33.785Z,100819.66
2018-12-15T00:42:01.392Z,100827.94
2018-12-15T00:44:29.475Z,100829.25
2018-12-15T00:46:57.035Z,100827.42
2018-12-15T00:49:24.595Z,100834.39
2018-12-15T00:51:52.159Z,100836.11
2018-12-15T00:54:20.059Z,100839.64
2018-12-15T00:56:47.597Z,100842.30
2018-12-15T00:59:15.220Z,100842.27
2018-12-15T01:01:43.185Z,100846.67
2018-12-15T01:04:10.725Z,100852.77
2018-12-15T01:06:38.288Z,100854.08
2018-12-15T01:09:06.152Z,100861.52
2018-12-15T01:11:33.686Z,100853.67
2018-12-15T01:14:01.244Z,100857.22
2018-12-15T01:16:28.775Z,100855.50
2018-12-15T01:18:56.766Z,100854.59
2018-12-15T01:21:24.330Z,100860.27
2018-12-15T01:23:51.900Z,100860.75
2018-12-15T01:26:19.783Z,100866.00
2018-12-15T01:28:47.399Z,100864.28
2018-12-15T01:31:14.975Z,100873.47
2018-12-15T01:33:42.526Z,100870.38
2018-12-15T01:36:10.488Z,100873.88
2018-12-15T01:38:38.062Z,100876.90
2018-12-15T01:41:05.633Z,100870.38
2018-12-15T01:43:33.215Z,100876.94
2018-12-15T01:46:02.199Z,100878.72
2018-12-15T01:48:32.842Z,100882.66
2018-12-15T01:51:00.414Z,100880.47
2018-12-15T01:53:28.376Z,100880.03
2018-12-15T01:55:55.939Z,100881.78
2018-12-15T01:58:23.483Z,100881.81
2018-12-15T02:00:51.122Z,100889.25
2018-12-15T02:03:19.177Z,100896.25
2018-12-15T02:05:46.705Z,100892.79
2018-12-15T02:08:14.233Z,100892.31
2018-12-15T02:10:41.851Z,100893.23
2018-12-15T02:13:09.719Z,100892.82
2018-12-15T02:15:37.271Z,100891.95
2018-12-15T02:18:04.818Z,100897.20
2018-12-15T02:20:32.407Z,100899.42
2018-12-15T02:23:00.334Z,100891.51
2018-12-15T02:25:27.896Z,100897.66
2018-12-15T02:27:55.429Z,100893.33
2018-12-15T02:30:22.985Z,100891.95
2018-12-15T02:32:50.964Z,100894.10
2018-12-15T02:35:18.544Z,100890.97
2018-12-15T02:37:46.108Z,100888.78
2018-12-15T02:40:13.674Z,100885.72
2018-12-15T02:42:41.751Z,100883.53
2018-12-15T02:45:09.275Z,100883.50
2018-12-15T02:47:41.420Z,100891.84
2018-12-15T02:50:06.491Z,100894.47
2018-12-15T02:52:34.421Z,100891.41
2018-12-15T02:55:01.972Z,100886.62
2018-12-15T02:57:29.517Z,100891.91
2018-12-15T02:59:57.048Z,100888.45
2018-12-15T03:02:24.960Z,100890.20
2018-12-15T03:04:52.470Z,100888.48
2018-12-15T03:07:20.762Z,100893.26
2018-12-15T03:09:48.320Z,100884.55
2018-12-15T03:12:16.390Z,100884.52
2018-12-15T03:14:43.958Z,100881.88
2018-12-15T03:17:11.479Z,100874.85
2018-12-15T03:19:39.012Z,100876.16
2018-12-15T03:22:06.902Z,100875.25
2018-12-15T03:24:34.432Z,100872.70
2018-12-15T03:27:01.987Z,100873.13
2018-12-15T03:29:29.806Z,100877.98
2018-12-15T03:31:57.332Z,100874.95
2018-12-15T03:34:24.911Z,100873.67
2018-12-15T03:36:52.456Z,100877.21
2018-12-15T03:39:19.972Z,100866.27
2018-12-15T03:41:47.551Z,100867.15
2018-12-15T03:44:15.095Z,100869.34
2018-12-15T03:46:43.102Z,100872.87
2018-12-15T03:49:10.806Z,100872.39
2018-12-15T03:51:38.370Z,100871.99
2018-12-15T03:54:05.884Z,100872.39
2018-12-15T03:56:33.826Z,100865.43
2018-12-15T03:59:01.383Z,100861.50
2018-12-15T04:01:28.911Z,100862.80
2018-12-15T04:03:56.475Z,100855.80
2018-12-15T04:06:24.460Z,100850.59
2018-12-15T04:08:52.026Z,100854.53
2018-12-15T04:11:19.588Z,100857.55
2018-12-15T04:13:47.155Z,100852.31
2018-12-15T04:16:15.163Z,100858.88
2018-12-15T04:18:42.670Z,100851.47
2018-12-15T04:21:10.206Z,100852.81
2018-12-15T04:23:37.751Z,100849.75
2018-12-15T04:26:05.658Z,100847.16
2018-12-15T04:28:33.226Z,100839.36
2018-12-15T04:31:00.741Z,100844.61
2018-12-15T04:33:28.288Z,100848.98
2018-12-15T04:35:57.858Z,100848.11
2018-12-15T04:38:25.390Z,100850.73
2018-12-15T04:40:52.903Z,100852.91
2018-12-15T04:43:20.415Z,100847.67
2018-12-15T04:45:48.359Z,100842.82
2018-12-15T04:48:15.879Z,100843.22
2018-12-15T04:50:43.411Z,100842.35
2018-12-15T04:53:11.267Z,100846.29
2018-12-15T04:55:38.842Z,100851.61
2018-12-15T04:58:06.386Z,100850.30
2018-12-15T05:00:33.911Z,100849.02
2018-12-15T05:03:01.940Z,100845.98
2018-12-15T05:05:29.573Z,100844.67
2018-12-15T05:07:57.154Z,100845.52
2018-12-15T05:10:24.662Z,100845.08
2018-12-15T05:12:52.668Z,100849.02
2018-12-15T05:15:20.205Z,100845.98
2018-12-15T05:17:47.742Z,100846.42
2018-12-15T05:20:15.793Z,100842.48
2018-12-15T05:22:43.388Z,100844.70
2018-12-15T05:25:11.163Z,100847.73
2018-12-15T05:27:40.102Z,100846.42
2018-12-15T05:30:07.650Z,100849.95
2018-12-15T05:32:36.458Z,100859.58
2018-12-15T05:35:04.308Z,100850.87
2018-12-15T05:37:33.282Z,100847.37
2018-12-15T05:40:00.792Z,100851.77
2018-12-15T05:42:28.778Z,100851.70
2018-12-15T05:44:56.299Z,100849.55
2018-12-15T05:47:23.854Z,100853.89
2018-12-15T05:49:51.455Z,100849.95
2018-12-15T05:52:19.418Z,100854.80
2018-12-15T05:54:47.015Z,100848.64
2018-12-15T05:57:14.534Z,100846.93
2018-12-15T05:59:42.134Z,100860.45
2018-12-15T06:02:12.720Z,100860.05
2018-12-15T06:04:40.299Z,100855.23
2018-12-15T06:07:07.829Z,100853.09
2018-12-15T06:09:35.370Z,100848.27
2018-12-15T06:12:02.909Z,100856.95
2018-12-15T06:14:30.484Z,100848.64
2018-12-15T06:16:58.323Z,100855.20
2018-12-15T06:19:25.910Z,100853.89
2018-12-15T06:21:53.447Z,100856.92
2018-12-15T06:24:21.582Z,100857.42
2018-12-15T06:26:49.139Z,100855.71
2018-12-15T06:29:16.701Z,100855.75
2018-12-15T06:31:44.246Z,100853.59
2018-12-15T06:34:13.141Z,100856.22
2018-12-15T06:36:40.670Z,100857.56
2018-12-15T06:39:08.182Z,100854.06
2018-12-15T06:41:35.723Z,100854.97
2018-12-15T06:44:03.804Z,100852.82
2018-12-15T06:46:31.362Z,100858.91
2018-12-15T06:49:00.092Z,100853.66
2018-12-15T06:51:28.051Z,100851.44
2018-12-15T06:53:55.630Z,100864.96
2018-12-15T06:56:26.918Z,100856.69
2018-12-15T06:58:54.894Z,100853.25
2018-12-15T07:01:22.416Z,100855.44
2018-12-15T07:03:50.066Z,100856.28
2018-12-15T07:06:17.665Z,100857.59
2018-12-15T07:08:45.275Z,100850.63
2018-12-15T07:11:12.809Z,100847.60
2018-12-15T07:13:40.815Z,100851.13
2018-12-15T07:16:08.358Z,100855.51
2018-12-15T07:18:36.107Z,100852.52
2018-12-15T07:21:05.306Z,100854.70
2018-12-15T07:23:34.167Z,100842.52
2018-12-15T07:26:01.781Z,100849.89
2018-12-15T07:28:29.330Z,100851.20
2018-12-15T07:30:57.271Z,100853.83
2018-12-15T07:33:24.856Z,100861.27
2018-12-15T07:35:52.763Z,100859.55
2018-12-15T07:38:20.286Z,100865.23
2018-12-15T07:40:47.840Z,100861.30
2018-12-15T07:43:15.852Z,100866.10
2018-12-15T07:45:43.418Z,100867.82
2018-12-15T07:48:10.975Z,100868.66
2018-12-15T07:50:38.861Z,100863.01
2018-12-15T07:53:06.429Z,100866.95
2018-12-15T07:55:34.267Z,100868.25
2018-12-15T07:58:02.190Z,100863.01
2018-12-15T08:00:29.783Z,100868.25
2018-12-15T08:02:58.259Z,100869.56
2018-12-15T08:05:26.251Z,100863.01
2018-12-15T08:07:53.831Z,100863.08
2018-12-15T08:10:24.687Z,100871.82
2018-12-15T08:12:57.672Z,100863.55
2018-12-15T08:15:25.223Z,100875.32
2018-12-15T08:17:52.760Z,100876.12
2018-12-15T08:20:20.741Z,100876.12
2018-12-15T08:22:49.843Z,100879.62
2018-12-15T08:25:17.402Z,100875.22
2018-12-15T08:27:45.720Z,100884.87
2018-12-15T08:30:13.321Z,100882.78
2018-12-15T08:32:42.270Z,100880.59
2018-12-15T08:35:10.973Z,100882.78
2018-12-15T08:37:39.123Z,100880.97
2018-12-15T08:40:07.404Z,100883.56
2018-12-15T08:42:40.515Z,100877.81
2018-12-15T08:45:08.851Z,100877.78
2018-12-15T08:47:36.403Z,100882.62
2018-12-15T08:50:04.344Z,100887.09
2018-12-15T08:52:31.914Z,100888.00
2018-12-15T08:54:59.471Z,100883.19
2018-12-15T08:57:28.247Z,100885.81
2018-12-15T08:59:55.832Z,100887.53
2018-12-15T09:02:23.387Z,100886.62
2018-12-15T09:04:51.321Z,100883.56
2018-12-15T09:07:19.909Z,100890.90
2018-12-15T09:09:47.427Z,100894.80
2018-12-15T09:12:15.316Z,100888.58
2018-12-15T09:14:42.971Z,100894.70
2018-12-15T09:17:10.526Z,100895.08
2018-12-15T09:19:38.607Z,100894.20
2018-12-15T09:22:11.316Z,100892.48
2018-12-15T09:24:35.796Z,100897.77
2018-12-15T09:27:04.137Z,100893.39
2018-12-15T09:29:31.697Z,100894.27
2018-12-15T09:31:59.350Z,100892.88
2018-12-15T09:34:27.343Z,100893.70
2018-12-15T09:36:56.087Z,100895.88
2018-12-15T09:39:23.708Z,100900.22
2018-12-15T09:41:51.514Z,100902.95
2018-12-15T09:44:19.067Z,100904.80
2018-12-15T09:46:47.275Z,100909.27
2018-12-15T09:49:17.924Z,100910.61
2018-12-15T09:51:44.750Z,100911.52
2018-12-15T09:54:12.413Z,100914.14
2018-12-15T09:56:40.259Z,100912.42
2018-12-15T09:59:07.889Z,100907.20
2018-12-15T10:01:35.446Z,100904.58
2018-12-15T10:04:04.360Z,100902.43
2018-12-15T10:06:33.111Z,100891.87
2018-12-15T10:09:00.660Z,100895.34
2018-12-15T10:11:28.511Z,100891.03
2018-12-15T10:13:56.041Z,100884.91
2018-12-15T10:16:23.578Z,100883.16
2018-12-15T10:18:51.511Z,100884.87
2018-12-15T10:21:19.636Z,100885.71
2018-12-15T10:23:47.935Z,100877.44
2018-12-15T10:26:15.850Z,100879.22
2018-12-15T10:28:43.412Z,100870.87
2018-12-15T10:31:17.642Z,100869.09
2018-12-15T10:33:45.661Z,100865.16
2018-12-15T10:36:13.476Z,100858.13
2018-12-15T10:38:41.789Z,100856.31
2018-12-15T10:41:09.971Z,100849.83
2018-12-15T10:43:37.514Z,100841.89
2018-12-15T10:46:05.083Z,100842.36
2018-12-15T10:48:33.846Z,100835.80
2018-12-15T10:51:01.406Z,100835.80
2018-12-15T10:53:28.991Z,100833.95
2018-12-15T10:55:57.987Z,100832.16
2018-12-15T10:58:25.490Z,100828.66
2018-12-15T11:01:02.067Z,100823.72
2018-12-15T11:03:30.706Z,100818.80
2018-12-15T11:05:58.944Z,100811.73
2018-12-15T11:08:26.527Z,100814.66
2018-12-15T11:10:54.703Z,100809.34
2018-12-15T11:13:22.890Z,100810.58
2018-12-15T11:15:52.530Z,100805.30
2018-12-15T11:18:22.049Z,100808.72
2018-12-15T11:20:50.661Z,100809.16
2018-12-15T11:23:18.656Z,100811.27
2018-12-15T11:25:46.995Z,100812.48
2018-12-15T11:28:14.593Z,100811.71
2018-12-15T11:30:42.504Z,100808.28
2018-12-15T11:33:10.099Z,100806.16
2018-12-15T11:35:37.687Z,100800.08
2018-12-15T11:38:06.893Z,100792.56
2018-12-15T11:40:34.442Z,100797.45
2018-12-15T11:43:04.060Z,100789.25
2018-12-15T11:45:32.911Z,100788.48
2018-12-15T11:48:00.442Z,100786.29
2018-12-15T11:50:28.734Z,100778.53
2018-12-15T11:52:56.656Z,100772.44
2018-12-15T11:55:24.431Z,100771.59
2018-12-15T11:57:52.588Z,100767.55
2018-12-15T12:00:23.418Z,100765.77
2018-12-15T12:02:51.036Z,100762.27
2018-12-15T12:05:18.616Z,100760.56
2018-12-15T12:07:47.183Z,100763.18
2018-12-15T12:10:14.757Z,100745.65
2018-12-15T12:12:42.296Z,100739.92
2018-12-15T12:15:10.297Z,100735.04
2018-12-15T12:17:37.871Z,100733.15
2018-12-15T12:20:05.581Z,100722.93
2018-12-15T12:22:34.479Z,100724.13
2018-12-15T12:25:02.235Z,100722.78
2018-12-15T12:27:30.474Z,100715.27
2018-12-15T12:29:58.516Z,100711.77
2018-12-15T12:32:26.625Z,100708.19
2018-12-15T12:34:54.180Z,100704.55
2018-12-15T12:37:22.157Z,100699.21
2018-12-15T12:39:49.708Z,100697.39
2018-12-15T12:42:17.291Z,100702.13
2018-12-15T12:44:46.546Z,100696.88
2018-12-15T12:47:14.157Z,100688.59
2018-12-15T12:49:41.742Z,100681.59
2018-12-15T12:52:09.770Z,100684.22
2018-12-15T12:54:38.213Z,100680.16
2018-12-15T12:57:07.522Z,100680.56
2018-12-15T12:59:35.469Z,100671.77
2018-12-15T13:02:03.896Z,100670.02
2018-12-15T13:04:31.568Z,100669.22
2018-12-15T13:06:59.512Z,100663.14
2018-12-15T13:09:27.088Z,100672.33
2018-12-15T13:11:54.722Z,100676.27
2018-12-15T13:14:23.218Z,100679.41
2018-12-15T13:16:50.765Z,100683.34
2018-12-15T13:19:18.800Z,100680.80
2018-12-15T13:21:49.799Z,100679.56
2018-12-15T13:24:17.430Z,100676.65
2018-12-15T13:26:45.000Z,100669.73
2018-12-15T13:29:16.731Z,100665.87
2018-12-15T13:31:44.314Z,100662.48
2018-12-15T13:34:11.878Z,100661.64
2018-12-15T13:36:39.791Z,100659.02
2018-12-15T13:39:09.102Z,100659.82
2018-12-15T13:41:37.564Z,100662.05
2018-12-15T13:44:06.417Z,100659.42
2018-12-15T13:46:33.982Z,100657.31
2018-12-15T13:49:01.533Z,100656.95
2018-12-15T13:51:29.420Z,100655.23
2018-12-15T13:53:56.964Z,100652.61
2018-12-15T13:56:24.520Z,100651.73
2018-12-15T13:58:52.398Z,100646.53
2018-12-15T14:01:19.958Z,100647.41
2018-12-15T14:03:47.545Z,100637.81
2018-12-15T14:06:16.499Z,100636.55
2018-12-15T14:08:44.053Z,100634.11
2018-12-15T14:11:12.262Z,100634.19
2018-12-15T14:13:40.863Z,100625.91
2018-12-15T14:16:09.074Z,100629.41
2018-12-15T14:18:36.715Z,100635.17
2018-12-15T14:21:05.729Z,100628.22
2018-12-15T14:23:33.278Z,100626.11
2018-12-15T14:26:02.857Z,100627.94
2018-12-15T14:28:31.889Z,100633.17
2018-12-15T14:30:59.433Z,100627.06
2018-12-15T14:33:27.645Z,100620.50
2018-12-15T14:35:55.495Z,100616.56
2018-12-15T14:38:24.956Z,100606.18
2018-12-15T14:40:52.520Z,100597.88
2018-12-15T14:43:21.384Z,100596.56
2018-12-15T14:45:48.934Z,100587.50
2018-12-15T14:48:16.632Z,100588.80
2018-12-15T14:50:44.549Z,100597.11
2018-12-15T14:53:12.255Z,100595.88
2018-12-15T14:55:40.499Z,100594.61
2018-12-15T14:58:08.364Z,100586.73
2018-12-15T15:00:36.017Z,100584.23
2018-12-15T15:03:03.614Z,100575.13
2018-12-15T15:05:32.649Z,100565.58
2018-12-15T15:08:01.334Z,100566.50
2018-12-15T15:10:30.179Z,100565.25
2018-12-15T15:12:58.255Z,100552.62
2018-12-15T15:15:27.369Z,100557.42
2018-12-15T15:17:54.964Z,100549.59
2018-12-15T15:20:22.856Z,100546.62
2018-12-15T15:22:50.419Z,100538.90
2018-12-15T15:25:17.942Z,100536.39
2018-12-15T15:27:45.852Z,100533.41
2018-12-15T15:30:13.406Z,100534.32
2018-12-15T15:32:41.780Z,100524.38
2018-12-15T15:35:09.628Z,100519.65
2018-12-15T15:37:38.092Z,100521.00
2018-12-15T15:40:05.643Z,100517.98
2018-12-15T15:42:33.544Z,100518.34
2018-12-15T15:45:01.115Z,100513.49
2018-12-15T15:47:28.705Z,100516.95
2018-12-15T15:49:56.655Z,100504.28
2018-12-15T15:52:24.190Z,100506.91
2018-12-15T15:54:51.716Z,100499.08
2018-12-15T15:57:20.170Z,100492.05
2018-12-15T15:59:48.391Z,100480.25
2018-12-15T16:02:18.003Z,100476.39
2018-12-15T16:04:45.894Z,100485.17
2018-12-15T16:07:13.477Z,100483.02
2018-12-15T16:09:45.003Z,100481.42
2018-12-15T16:12:12.181Z,100472.73
2018-12-15T16:14:39.781Z,100465.85
2018-12-15T16:17:08.427Z,100482.97
2018-12-15T16:19:36.014Z,100469.94
2018-12-15T16:22:03.864Z,100461.23
2018-12-15T16:24:31.875Z,100458.22
2018-12-15T16:26:59.478Z,100452.58
2018-12-15T16:29:27.041Z,100447.77
2018-12-15T16:31:55.015Z,100449.16
2018-12-15T16:34:22.677Z,100433.19
2018-12-15T16:36:50.286Z,100428.42
2018-12-15T16:39:19.540Z,100435.12
2018-12-15T16:41:47.839Z,100425.59
2018-12-15T16:44:15.588Z,100425.35
2018-12-15T16:46:43.504Z,100422.92
2018-12-15T16:49:11.178Z,100412.19
2018-12-15T16:51:38.819Z,100410.63
2018-12-15T16:54:06.690Z,100413.00
2018-12-15T16:56:36.715Z,100400.93
2018-12-15T16:59:04.287Z,100393.22
2018-12-15T17:01:33.471Z,100388.60
2018-12-15T17:04:01.038Z,100384.82
2018-12-15T17:06:29.621Z,100383.22
2018-12-15T17:08:57.555Z,100370.28
2018-12-15T17:11:25.858Z,100370.42
2018-12-15T17:13:53.460Z,100367.52
2018-12-15T17:16:21.576Z,100367.16
2018-12-15T17:18:49.941Z,100361.52
2018-12-15T17:21:17.490Z,100376.78
2018-12-15T17:23:45.391Z,100381.28
2018-12-15T17:26:12.957Z,100374.95
2018-12-15T17:28:40.501Z,100373.32
2018-12-15T17:31:08.412Z,100381.27
2018-12-15T17:33:37.002Z,100368.30
2018-12-15T17:36:04.531Z,100355.69
2018-12-15T17:38:33.090Z,100346.13
2018-12-15T17:41:00.645Z,100336.61
2018-12-15T17:43:28.993Z,100335.37
2018-12-15T17:45:56.896Z,100334.64
2018-12-15T17:48:24.471Z,100339.14
2018-12-15T17:50:53.652Z,100342.26
2018-12-15T17:53:21.529Z,100326.30
2018-12-15T17:55:49.482Z,100318.09
2018-12-15T17:58:17.015Z,100320.41
2018-12-15T18:00:46.362Z,100321.78
2018-12-15T18:03:13.922Z,100316.25
2018-12-15T18:05:42.710Z,100306.77
2018-12-15T18:08:11.244Z,100301.94
2018-12-15T18:10:38.831Z,100294.03
2018-12-15T18:13:08.392Z,100295.64
2018-12-15T18:15:37.088Z,100287.29
2018-12-15T18:18:04.645Z,100288.27
2018-12-15T18:20:36.725Z,100280.95
2018-12-15T18:23:04.748Z,100285.28
2018-12-15T18:25:32.331Z,100278.81
2018-12-15T18:28:01.055Z,100275.80
2018-12-15T18:30:28.987Z,100268.86
2018-12-15T18:32:56.611Z,100260.18
2018-12-15T18:35:24.993Z,100253.14
2018-12-15T18:37:53.802Z,100256.59
2018-12-15T18:40:21.355Z,100256.12
2018-12-15T18:42:48.969Z,100242.14
2018-12-15T18:45:17.500Z,100240.33
2018-12-15T18:47:45.075Z,100236.80
2018-12-15T18:50:13.812Z,100238.04
2018-12-15T18:52:42.741Z,100223.30
2018-12-15T18:55:11.250Z,100234.70
2018-12-15T18:57:38.824Z,100229.47
2018-12-15T19:00:06.976Z,100229.06
2018-12-15T19:02:35.239Z,100220.83
2018-12-15T19:05:04.458Z,100216.43
2018-12-15T19:07:32.524Z,100207.28
2018-12-15T19:10:00.095Z,100204.23
2018-12-15T19:12:27.686Z,100191.98
2018-12-15T19:14:57.618Z,100186.72
2018-12-15T19:17:25.361Z,100184.51
2018-12-15T19:19:55.952Z,100174.09
2018-12-15T19:22:24.587Z,100163.19
2018-12-15T19:24:52.170Z,100162.44
2018-12-15T19:27:19.738Z,100151.97
2018-12-15T19:29:47.591Z,100148.96
2018-12-15T19:32:15.761Z,100136.00
2018-12-15T19:34:44.940Z,100144.79
2018-12-15T19:37:12.822Z,100142.66
2018-12-15T19:39:40.400Z,100137.09
2018-12-15T19:42:07.971Z,100141.02
2018-12-15T19:44:36.045Z,100142.80
2018-12-15T19:47:03.655Z,100142.66
2018-12-15T19:49:31.185Z,100147.84
2018-12-15T19:52:01.172Z,100142.06
2018-12-15T19:54:28.695Z,100132.52
2018-12-15T19:56:56.577Z,100133.83
2018-12-15T19:59:29.205Z,100125.19
2018-12-15T20:01:56.738Z,100123.25
2018-12-15T20:04:24.375Z,100126.73
2018-12-15T20:06:55.317Z,100115.52
2018-12-15T20:09:24.667Z,100111.72
2018-12-15T20:11:55.230Z,100110.48
2018-12-15T20:14:24.578Z,100109.73
2018-12-15T20:16:52.115Z,100098.08
2018-12-15T20:19:19.670Z,100098.58
2018-12-15T20:21:47.536Z,100092.89
2018-12-15T20:24:15.083Z,100098.58
2018-12-15T20:26:42.655Z,100092.48
2018-12-15T20:29:10.499Z,100091.54
2018-12-15T20:31:38.066Z,100093.61
2018-12-15T20:34:05.631Z,100089.69
2018-12-15T20:36:33.481Z,100082.35
2018-12-15T20:39:02.679Z,100076.69
2018-12-15T20:41:32.011Z,100075.45
2018-12-15T20:43:59.895Z,100070.91
2018-12-15T20:46:27.480Z,100070.84
2018-12-15T20:48:55.719Z,100070.84
2018-12-15T20:51:23.651Z,100063.43
2018-12-15T20:53:51.300Z,100061.37
2018-12-15T20:56:18.889Z,100054.91
2018-12-15T20:58:49.830Z,100048.81
2018-12-15T21:01:17.394Z,100042.28
2018-12-15T21:03:45.621Z,100034.00
2018-12-15T21:06:14.322Z,100032.77
2018-12-15T21:08:41.910Z,100025.88
2018-12-15T21:11:10.160Z,100014.23
2018-12-15T21:13:39.961Z,100015.54
2018-12-15T21:16:07.569Z,100008.89
2018-12-15T21:18:35.527Z,99998.95
2018-12-15T21:21:03.124Z,99990.75
2018-12-15T21:23:30.654Z,99986.16
2018-12-15T21:25:58.544Z,99981.52
2018-12-15T21:28:26.094Z,99980.73
2018-12-15T21:30:54.268Z,99977.28
2018-12-15T21:33:22.090Z,99978.11
2018-12-15T21:35:49.654Z,99970.20
2018-12-15T21:38:17.207Z,99969.77
2018-12-15T21:40:45.227Z,99966.75
2018-12-15T21:43:13.407Z,99961.53
2018-12-15T21:45:41.214Z,99955.91
2018-12-15T21:48:09.187Z,99950.33
2018-12-15T21:50:39.762Z,99955.95
2018-12-15T21:53:09.361Z,99949.41
2018-12-15T21:55:37.594Z,99940.11
2018-12-15T21:58:06.038Z,99933.46
2018-12-15T22:00:33.588Z,99920.36
2018-12-15T22:03:01.483Z,99903.77
2018-12-15T22:05:29.005Z,99898.77
2018-12-15T22:07:57.224Z,99891.80
2018-12-15T22:10:26.954Z,99896.23
2018-12-15T22:12:55.481Z,99896.72
2018-12-15T22:15:23.021Z,99893.11
2018-12-15T22:17:51.732Z,99887.84
2018-12-15T22:20:19.526Z,99889.14
2018-12-15T22:22:48.289Z,99884.83
2018-12-15T22:25:16.206Z,99872.25
2018-12-15T22:27:43.741Z,99864.92
2018-12-15T22:30:12.335Z,99861.40
2018-12-15T22:32:40.231Z,99850.95
2018-12-15T22:35:07.768Z,99845.33
2018-12-15T22:37:35.307Z,99837.48
2018-12-15T22:40:03.267Z,99833.05
2018-12-15T22:42:33.826Z,99831.26
2018-12-15T22:45:01.400Z,99823.46
2018-12-15T22:47:29.284Z,99821.24
2018-12-15T22:49:56.847Z,99819.89
2018-12-15T22:52:24.374Z,99808.52
2018-12-15T22:54:55.363Z,99803.56
2018-12-15T22:57:22.893Z,99796.94
2018-12-15T22:59:50.447Z,99791.14
2018-12-15T23:02:21.091Z,99787.14
2018-12-15T23:04:50.235Z,99771.89
2018-12-15T23:07:18.449Z,99770.41
2018-12-15T23:09:47.710Z,99761.99
2018-12-15T23:12:16.142Z,99762.73
2018-12-15T23:14:44.425Z,99748.66
2018-12-15T23:17:14.293Z,99740.67
2018-12-15T23:19:41.856Z,99740.06
2018-12-15T23:22:16.141Z,99729.45
2018-12-15T23:24:39.667Z,99719.30
2018-12-15T23:27:07.226Z,99716.11
2018-12-15T23:29:34.807Z,99712.61
2018-12-15T23:32:02.663Z,99710.70
2018-12-15T23:34:30.221Z,99704.16
2018-12-15T23:36:58.189Z,99704.97
2018-12-15T23:39:26.141Z,99704.39
2018-12-15T23:41:53.717Z,99712.58
2018-12-15T23:44:21.290Z,99707.98
2018-12-15T23:46:49.239Z,99702.31
2018-12-15T23:49:16.791Z,99700.92
2018-12-15T23:51:44.353Z,99710.50
2018-12-15T23:54:12.392Z,99700.81
2018-12-15T23:56:40.502Z,99710.75
2018-12-15T23:59:08.071Z,99702.91
